sensor_id;sensor_type;location;lat;lon;timestamp;pressure;altitude;pressure_sealevel;temperature;humidity
46015;BME280;36844;51.898;-0.874;2023-02-05T00:00:43;102843.91;;;19.24;
46015;BME280;36844;51.898;-0.874;2023-02-05T00:03:08;102861.59;;;19.21;
46015;BME280;36844;51.898;-0.874;2023-02-05T00:05:35;102844.97;;;19.19;
46015;BME280;36844;51.898;-0.874;2023-02-05T00:08:00;102841.00;;;19.17;
46015;BME280;36844;51.898;-0.874;2023-02-05T00:10:25;102841.69;;;19.14;
46015;BME280;36844;51.898;-0.874;2023-02-05T00:12:51;102847.47;;;19.12;
46015;BME280;36844;51.898;-0.874;2023-02-05T00:15:16;102841.59;;;19.10;
46015;BME280;36844;51.898;-0.874;2023-02-05T00:17:41;102842.28;;;19.07;
46015;BME280;36844;51.898;-0.874;2023-02-05T00:20:07;102830.28;;;19.05;
46015;BME280;36844;51.898;-0.874;2023-02-05T00:22:33;102839.81;;;19.02;
46015;BME280;36844;51.898;-0.874;2023-02-05T00:24:58;102835.91;;;19.00;
46015;BME280;36844;51.898;-0.874;2023-02-05T00:27:24;102838.16;;;18.98;
46015;BME280;36844;51.898;-0.874;2023-02-05T00:29:49;102829.59;;;18.96;
46015;BME280;36844;51.898;-0.874;2023-02-05T00:32:15;102836.50;;;18.93;
46015;BME280;36844;51.898;-0.874;2023-02-05T00:34:40;102850.31;;;18.92;
46015;BME280;36844;51.898;-0.874;2023-02-05T00:37:06;102863.38;;;18.90;
46015;BME280;36844;51.898;-0.874;2023-02-05T00:39:32;102863.72;;;18.88;
46015;BME280;36844;51.898;-0.874;2023-02-05T00:41:58;102863.28;;;18.86;
46015;BME280;36844;51.898;-0.874;2023-02-05T00:44:23;102851.72;;;18.86;
46015;BME280;36844;51.898;-0.874;2023-02-05T00:46:48;102870.16;;;18.84;
46015;BME280;36844;51.898;-0.874;2023-02-05T00:49:13;102866.25;;;18.81;
46015;BME280;36844;51.898;-0.874;2023-02-05T00:51:39;102870.06;;;18.80;
46015;BME280;36844;51.898;-0.874;2023-02-05T00:54:04;102882.31;;;18.77;
46015;BME280;36844;51.898;-0.874;2023-02-05T00:56:29;102884.56;;;18.75;
46015;BME280;36844;51.898;-0.874;2023-02-05T00:58:54;102887.97;;;18.72;
46015;BME280;36844;51.898;-0.874;2023-02-05T01:01:21;102878.28;;;18.71;
46015;BME280;36844;51.898;-0.874;2023-02-05T01:03:46;102878.66;;;18.70;
46015;BME280;36844;51.898;-0.874;2023-02-05T01:06:11;102906.75;;;18.69;
46015;BME280;36844;51.898;-0.874;2023-02-05T01:08:37;102902.84;;;18.66;
46015;BME280;36844;51.898;-0.874;2023-02-05T01:11:05;102913.97;;;18.65;
46015;BME280;36844;51.898;-0.874;2023-02-05T01:13:30;102898.09;;;18.63;
46015;BME280;36844;51.898;-0.874;2023-02-05T01:15:55;102896.88;;;18.61;
46015;BME280;36844;51.898;-0.874;2023-02-05T01:18:20;102894.50;;;18.59;
46015;BME280;36844;51.898;-0.874;2023-02-05T01:20:46;102907.22;;;18.59;
46015;BME280;36844;51.898;-0.874;2023-02-05T01:23:11;102917.56;;;18.57;
46015;BME280;36844;51.898;-0.874;2023-02-05T01:25:36;102916.34;;;18.54;
46015;BME280;36844;51.898;-0.874;2023-02-05T01:28:01;102902.41;;;18.52;
46015;BME280;36844;51.898;-0.874;2023-02-05T01:30:28;102912.41;;;18.52;
46015;BME280;36844;51.898;-0.874;2023-02-05T01:32:53;102914.63;;;18.50;
46015;BME280;36844;51.898;-0.874;2023-02-05T01:35:20;102916.88;;;18.48;
46015;BME280;36844;51.898;-0.874;2023-02-05T01:37:48;102908.34;;;18.46;
46015;BME280;36844;51.898;-0.874;2023-02-05T01:40:14;102916.78;;;18.44;
46015;BME280;36844;51.898;-0.874;2023-02-05T01:42:41;102906.31;;;18.43;
46015;BME280;36844;51.898;-0.874;2023-02-05T01:47:44;102920.47;;;18.40;
46015;BME280;36844;51.898;-0.874;2023-02-05T01:50:09;102915.75;;;18.37;
46015;BME280;36844;51.898;-0.874;2023-02-05T01:52:34;102921.16;;;18.37;
46015;BME280;36844;51.898;-0.874;2023-02-05T01:54:59;102912.63;;;18.35;
46015;BME280;36844;51.898;-0.874;2023-02-05T01:57:26;102919.16;;;18.34;
46015;BME280;36844;51.898;-0.874;2023-02-05T01:59:52;102936.44;;;18.33;
46015;BME280;36844;51.898;-0.874;2023-02-05T02:02:17;102941.41;;;18.31;
46015;BME280;36844;51.898;-0.874;2023-02-05T02:04:44;102933.63;;;18.29;
46015;BME280;36844;51.898;-0.874;2023-02-05T02:07:11;102928.59;;;18.28;
46015;BME280;36844;51.898;-0.874;2023-02-05T02:09:38;102925.41;;;18.26;
46015;BME280;36844;51.898;-0.874;2023-02-05T02:12:04;102940.00;;;18.25;
46015;BME280;36844;51.898;-0.874;2023-02-05T02:14:30;102948.47;;;18.23;
46015;BME280;36844;51.898;-0.874;2023-02-05T02:16:56;102955.78;;;18.23;
46015;BME280;36844;51.898;-0.874;2023-02-05T02:19:44;102945.31;;;18.21;
46015;BME280;36844;51.898;-0.874;2023-02-05T02:27:32;102954.41;;;18.17;
46015;BME280;36844;51.898;-0.874;2023-02-05T02:30:00;102962.06;;;18.15;
46015;BME280;36844;51.898;-0.874;2023-02-05T02:32:34;102958.94;;;18.13;
46015;BME280;36844;51.898;-0.874;2023-02-05T02:35:06;102965.44;;;18.12;
46015;BME280;36844;51.898;-0.874;2023-02-05T02:40:31;102970.72;;;18.08;
46015;BME280;36844;51.898;-0.874;2023-02-05T02:45:47;102981.38;;;18.05;
46015;BME280;36844;51.898;-0.874;2023-02-05T02:48:15;102993.28;;;18.04;
46015;BME280;36844;51.898;-0.874;2023-02-05T02:50:42;103000.56;;;18.03;
46015;BME280;36844;51.898;-0.874;2023-02-05T02:53:10;103000.91;;;18.02;
46015;BME280;36844;51.898;-0.874;2023-02-05T02:55:37;103005.53;;;18.01;
46015;BME280;36844;51.898;-0.874;2023-02-05T02:58:08;103017.41;;;18.00;
46015;BME280;36844;51.898;-0.874;2023-02-05T03:00:34;103016.97;;;17.98;
46015;BME280;36844;51.898;-0.874;2023-02-05T03:03:01;103031.59;;;17.97;
46015;BME280;36844;51.898;-0.874;2023-02-05T03:05:27;103055.06;;;17.97;
46015;BME280;36844;51.898;-0.874;2023-02-05T03:07:55;103061.56;;;17.96;
46015;BME280;36844;51.898;-0.874;2023-02-05T03:10:28;103076.19;;;17.95;
46015;BME280;36844;51.898;-0.874;2023-02-05T03:12:56;103073.00;;;17.93;
46015;BME280;36844;51.898;-0.874;2023-02-05T03:15:21;103081.09;;;17.93;
46015;BME280;36844;51.898;-0.874;2023-02-05T03:17:49;103076.38;;;17.90;
46015;BME280;36844;51.898;-0.874;2023-02-05T03:20:25;103074.78;;;17.89;
46015;BME280;36844;51.898;-0.874;2023-02-05T03:22:51;103076.69;;;17.88;
46015;BME280;36844;51.898;-0.874;2023-02-05T03:25:18;103084.00;;;17.88;
46015;BME280;36844;51.898;-0.874;2023-02-05T03:27:43;103094.34;;;17.86;
46015;BME280;36844;51.898;-0.874;2023-02-05T03:30:09;103106.22;;;17.85;
46015;BME280;36844;51.898;-0.874;2023-02-05T03:45:50;103131.66;;;17.75;
46015;BME280;36844;51.898;-0.874;2023-02-05T03:50:54;103126.94;;;17.72;
46015;BME280;36844;51.898;-0.874;2023-02-05T03:55:58;103139.19;;;17.69;
46015;BME280;36844;51.898;-0.874;2023-02-05T03:58:29;103135.69;;;17.69;
46015;BME280;36844;51.898;-0.874;2023-02-05T04:00:56;103125.19;;;17.67;
46015;BME280;36844;51.898;-0.874;2023-02-05T04:03:22;103125.53;;;17.66;
46015;BME280;36844;51.898;-0.874;2023-02-05T04:05:47;103122.84;;;17.66;
46015;BME280;36844;51.898;-0.874;2023-02-05T04:08:12;103122.38;;;17.64;
46015;BME280;36844;51.898;-0.874;2023-02-05T04:10:37;103130.31;;;17.60;
46015;BME280;36844;51.898;-0.874;2023-02-05T04:13:03;103140.81;;;17.62;
46015;BME280;36844;51.898;-0.874;2023-02-05T04:15:28;103144.59;;;17.61;
46015;BME280;36844;51.898;-0.874;2023-02-05T04:17:54;103149.19;;;17.60;
46015;BME280;36844;51.898;-0.874;2023-02-05T04:20:21;103155.69;;;17.59;
46015;BME280;36844;51.898;-0.874;2023-02-05T04:22:47;103164.13;;;17.58;
46015;BME280;36844;51.898;-0.874;2023-02-05T04:25:12;103161.75;;;17.56;
46015;BME280;36844;51.898;-0.874;2023-02-05T04:27:37;103166.31;;;17.56;
46015;BME280;36844;51.898;-0.874;2023-02-05T04:30:02;103164.75;;;17.55;
46015;BME280;36844;51.898;-0.874;2023-02-05T04:32:28;103169.38;;;17.54;
46015;BME280;36844;51.898;-0.874;2023-02-05T04:34:53;103183.16;;;17.53;
46015;BME280;36844;51.898;-0.874;2023-02-05T04:37:18;103195.03;;;17.52;
46015;BME280;36844;51.898;-0.874;2023-02-05T04:39:44;103199.63;;;17.51;
46015;BME280;36844;51.898;-0.874;2023-02-05T04:42:10;103200.78;;;17.50;
46015;BME280;36844;51.898;-0.874;2023-02-05T04:44:35;103189.50;;;17.48;
46015;BME280;36844;51.898;-0.874;2023-02-05T04:47:01;103189.88;;;17.47;
46015;BME280;36844;51.898;-0.874;2023-02-05T04:49:26;103192.88;;;17.45;
46015;BME280;36844;51.898;-0.874;2023-02-05T04:51:51;103190.97;;;17.46;
46015;BME280;36844;51.898;-0.874;2023-02-05T04:54:16;103193.16;;;17.44;
46015;BME280;36844;51.898;-0.874;2023-02-05T04:56:42;103194.31;;;17.43;
46015;BME280;36844;51.898;-0.874;2023-02-05T04:59:07;103188.13;;;17.42;
46015;BME280;36844;51.898;-0.874;2023-02-05T05:01:32;103175.75;;;17.41;
46015;BME280;36844;51.898;-0.874;2023-02-05T05:03:57;103186.84;;;17.40;
46015;BME280;36844;51.898;-0.874;2023-02-05T05:06:23;103188.78;;;17.39;
46015;BME280;36844;51.898;-0.874;2023-02-05T05:08:48;103195.28;;;17.38;
46015;BME280;36844;51.898;-0.874;2023-02-05T05:11:14;103199.06;;;17.37;
46015;BME280;36844;51.898;-0.874;2023-02-05T05:13:40;103198.25;;;17.37;
46015;BME280;36844;51.898;-0.874;2023-02-05T05:16:06;103204.81;;;17.36;
46015;BME280;36844;51.898;-0.874;2023-02-05T05:18:31;103207.81;;;17.34;
46015;BME280;36844;51.898;-0.874;2023-02-05T05:20:57;103215.41;;;17.32;
46015;BME280;36844;51.898;-0.874;2023-02-05T05:23:23;103221.56;;;17.33;
46015;BME280;36844;51.898;-0.874;2023-02-05T05:25:48;103219.25;;;17.31;
46015;BME280;36844;51.898;-0.874;2023-02-05T05:28:13;103228.41;;;17.30;
46015;BME280;36844;51.898;-0.874;2023-02-05T05:30:39;103242.97;;;17.29;
46015;BME280;36844;51.898;-0.874;2023-02-05T05:33:05;103253.75;;;17.29;
46015;BME280;36844;51.898;-0.874;2023-02-05T05:35:30;103251.41;;;17.28;
46015;BME280;36844;51.898;-0.874;2023-02-05T05:37:56;103255.22;;;17.27;
46015;BME280;36844;51.898;-0.874;2023-02-05T05:40:21;103252.81;;;17.25;
46015;BME280;36844;51.898;-0.874;2023-02-05T05:43:07;103256.66;;;17.24;
46015;BME280;36844;51.898;-0.874;2023-02-05T05:45:51;103255.34;;;17.22;
46015;BME280;36844;51.898;-0.874;2023-02-05T05:48:16;103262.66;;;17.21;
46015;BME280;36844;51.898;-0.874;2023-02-05T05:50:42;103268.06;;;17.21;
46015;BME280;36844;51.898;-0.874;2023-02-05T05:53:07;103274.56;;;17.20;
46015;BME280;36844;51.898;-0.874;2023-02-05T05:55:32;103278.34;;;17.19;
46015;BME280;36844;51.898;-0.874;2023-02-05T05:57:57;103285.66;;;17.19;
46015;BME280;36844;51.898;-0.874;2023-02-05T06:00:23;103280.59;;;17.17;
46015;BME280;36844;51.898;-0.874;2023-02-05T06:02:48;103281.69;;;17.16;
46015;BME280;36844;51.898;-0.874;2023-02-05T06:05:13;103290.88;;;17.15;
46015;BME280;36844;51.898;-0.874;2023-02-05T06:07:38;103294.66;;;17.14;
46015;BME280;36844;51.898;-0.874;2023-02-05T06:10:04;103298.50;;;17.13;
46015;BME280;36844;51.898;-0.874;2023-02-05T06:12:29;103296.91;;;17.12;
46015;BME280;36844;51.898;-0.874;2023-02-05T06:14:54;103307.69;;;17.12;
46015;BME280;36844;51.898;-0.874;2023-02-05T06:17:19;103315.25;;;17.10;
46015;BME280;36844;51.898;-0.874;2023-02-05T06:19:45;103317.50;;;17.08;
46015;BME280;36844;51.898;-0.874;2023-02-05T06:22:10;103325.59;;;17.08;
46015;BME280;36844;51.898;-0.874;2023-02-05T06:24:36;103325.59;;;17.08;
46015;BME280;36844;51.898;-0.874;2023-02-05T06:27:01;103319.72;;;17.06;
46015;BME280;36844;51.898;-0.874;2023-02-05T06:29:26;103323.53;;;17.05;
46015;BME280;36844;51.898;-0.874;2023-02-05T06:31:51;103336.22;;;17.05;
46015;BME280;36844;51.898;-0.874;2023-02-05T06:34:17;103338.09;;;17.04;
46015;BME280;36844;51.898;-0.874;2023-02-05T06:36:42;103354.56;;;17.03;
46015;BME280;36844;51.898;-0.874;2023-02-05T06:39:07;103341.44;;;17.01;
46015;BME280;36844;51.898;-0.874;2023-02-05T06:41:32;103337.63;;;17.02;
46015;BME280;36844;51.898;-0.874;2023-02-05T06:43:58;103342.53;;;17.00;
46015;BME280;36844;51.898;-0.874;2023-02-05T06:46:24;103351.69;;;16.99;
46015;BME280;36844;51.898;-0.874;2023-02-05T06:48:50;103349.81;;;17.00;
46015;BME280;36844;51.898;-0.874;2023-02-05T06:51:15;103341.72;;;17.00;
46015;BME280;36844;51.898;-0.874;2023-02-05T06:53:40;103347.91;;;17.00;
46015;BME280;36844;51.898;-0.874;2023-02-05T06:56:05;103364.06;;;17.00;
46015;BME280;36844;51.898;-0.874;2023-02-05T06:58:31;103362.97;;;17.01;
46015;BME280;36844;51.898;-0.874;2023-02-05T07:00:56;103368.81;;;17.03;
46015;BME280;36844;51.898;-0.874;2023-02-05T07:03:21;103360.44;;;17.05;
46015;BME280;36844;51.898;-0.874;2023-02-05T07:05:46;103360.13;;;17.06;
46015;BME280;36844;51.898;-0.874;2023-02-05T07:08:11;103361.41;;;17.09;
46015;BME280;36844;51.898;-0.874;2023-02-05T07:10:37;103364.53;;;17.11;
46015;BME280;36844;51.898;-0.874;2023-02-05T07:13:02;103372.78;;;17.14;
46015;BME280;36844;51.898;-0.874;2023-02-05T07:15:27;103374.88;;;17.17;
46015;BME280;36844;51.898;-0.874;2023-02-05T07:17:52;103385.31;;;17.19;
46015;BME280;36844;51.898;-0.874;2023-02-05T07:20:18;103382.50;;;17.24;
46015;BME280;36844;51.898;-0.874;2023-02-05T07:22:43;103382.63;;;17.27;
46015;BME280;36844;51.898;-0.874;2023-02-05T07:25:08;103393.56;;;17.31;
46015;BME280;36844;51.898;-0.874;2023-02-05T07:27:34;103388.34;;;17.34;
46015;BME280;36844;51.898;-0.874;2023-02-05T07:29:59;103410.84;;;17.38;
46015;BME280;36844;51.898;-0.874;2023-02-05T07:32:24;103414.50;;;17.42;
46015;BME280;36844;51.898;-0.874;2023-02-05T07:34:49;103416.25;;;17.47;
46015;BME280;36844;51.898;-0.874;2023-02-05T07:37:15;103426.03;;;17.51;
46015;BME280;36844;51.898;-0.874;2023-02-05T07:39:40;103421.59;;;17.55;
46015;BME280;36844;51.898;-0.874;2023-02-05T07:42:05;103421.47;;;17.60;
46015;BME280;36844;51.898;-0.874;2023-02-05T07:44:30;103420.81;;;17.63;
46015;BME280;36844;51.898;-0.874;2023-02-05T07:46:56;103420.19;;;17.66;
46015;BME280;36844;51.898;-0.874;2023-02-05T07:49:21;103428.44;;;17.70;
46015;BME280;36844;51.898;-0.874;2023-02-05T07:51:46;103424.31;;;17.72;
46015;BME280;36844;51.898;-0.874;2023-02-05T07:54:12;103433.34;;;17.77;
46015;BME280;36844;51.898;-0.874;2023-02-05T07:56:39;103429.69;;;17.81;
46015;BME280;36844;51.898;-0.874;2023-02-05T07:59:04;103426.38;;;17.84;
46015;BME280;36844;51.898;-0.874;2023-02-05T08:01:31;103428.41;;;17.87;
46015;BME280;36844;51.898;-0.874;2023-02-05T08:03:56;103434.28;;;17.89;
46015;BME280;36844;51.898;-0.874;2023-02-05T08:06:21;103440.16;;;17.91;
46015;BME280;36844;51.898;-0.874;2023-02-05T08:08:46;103442.53;;;17.93;
46015;BME280;36844;51.898;-0.874;2023-02-05T08:11:13;103436.78;;;17.94;
46015;BME280;36844;51.898;-0.874;2023-02-05T08:13:39;103452.66;;;17.96;
46015;BME280;36844;51.898;-0.874;2023-02-05T08:16:05;103455.06;;;17.97;
46015;BME280;36844;51.898;-0.874;2023-02-05T08:18:30;103457.75;;;17.97;
46015;BME280;36844;51.898;-0.874;2023-02-05T08:20:55;103462.03;;;17.98;
46015;BME280;36844;51.898;-0.874;2023-02-05T08:23:20;103450.09;;;17.99;
46015;BME280;36844;51.898;-0.874;2023-02-05T08:25:46;103472.50;;;18.00;
46015;BME280;36844;51.898;-0.874;2023-02-05T08:28:11;103475.19;;;18.00;
46015;BME280;36844;51.898;-0.874;2023-02-05T08:30:37;103485.19;;;17.99;
46015;BME280;36844;51.898;-0.874;2023-02-05T08:33:03;103482.47;;;17.99;
46015;BME280;36844;51.898;-0.874;2023-02-05T08:35:28;103497.91;;;17.99;
46015;BME280;36844;51.898;-0.874;2023-02-05T08:37:53;103499.00;;;17.98;
46015;BME280;36844;51.898;-0.874;2023-02-05T08:40:19;103501.69;;;17.98;
46015;BME280;36844;51.898;-0.874;2023-02-05T08:42:44;103512.47;;;17.98;
46015;BME280;36844;51.898;-0.874;2023-02-05T08:45:10;103505.50;;;17.97;
46015;BME280;36844;51.898;-0.874;2023-02-05T08:47:36;103493.91;;;17.96;
46015;BME280;36844;51.898;-0.874;2023-02-05T08:50:02;103484.25;;;17.95;
46015;BME280;36844;51.898;-0.874;2023-02-05T08:52:28;103491.53;;;17.95;
46015;BME280;36844;51.898;-0.874;2023-02-05T08:54:53;103491.06;;;17.93;
46015;BME280;36844;51.898;-0.874;2023-02-05T08:57:18;103501.06;;;17.92;
46015;BME280;36844;51.898;-0.874;2023-02-05T08:59:44;103513.78;;;17.92;
46015;BME280;36844;51.898;-0.874;2023-02-05T09:02:12;103509.47;;;17.91;
46015;BME280;36844;51.898;-0.874;2023-02-05T09:04:37;103516.00;;;17.90;
46015;BME280;36844;51.898;-0.874;2023-02-05T09:07:03;103513.59;;;17.88;
46015;BME280;36844;51.898;-0.874;2023-02-05T09:09:28;103512.81;;;17.88;
46015;BME280;36844;51.898;-0.874;2023-02-05T09:11:55;103511.22;;;17.87;
46015;BME280;36844;51.898;-0.874;2023-02-05T09:14:22;103504.25;;;17.86;
46015;BME280;36844;51.898;-0.874;2023-02-05T09:16:47;103495.69;;;17.84;
46015;BME280;36844;51.898;-0.874;2023-02-05T09:19:13;103486.00;;;17.83;
46015;BME280;36844;51.898;-0.874;2023-02-05T09:21:39;103484.41;;;17.82;
46015;BME280;36844;51.898;-0.874;2023-02-05T09:24:04;103501.72;;;17.81;
46015;BME280;36844;51.898;-0.874;2023-02-05T09:26:29;103496.63;;;17.79;
46015;BME280;36844;51.898;-0.874;2023-02-05T09:28:55;103500.78;;;17.77;
46015;BME280;36844;51.898;-0.874;2023-02-05T09:31:20;103490.28;;;17.75;
46015;BME280;36844;51.898;-0.874;2023-02-05T09:33:46;103496.00;;;17.73;
46015;BME280;36844;51.898;-0.874;2023-02-05T09:36:18;103499.81;;;17.72;
46015;BME280;36844;51.898;-0.874;2023-02-05T09:38:46;103498.22;;;17.71;
46015;BME280;36844;51.898;-0.874;2023-02-05T09:46:13;103498.06;;;17.68;
46015;BME280;36844;51.898;-0.874;2023-02-05T09:48:45;103490.28;;;17.66;
46015;BME280;36844;51.898;-0.874;2023-02-05T09:51:13;103494.88;;;17.66;
46015;BME280;36844;51.898;-0.874;2023-02-05T09:53:40;103477.13;;;17.65;
46015;BME280;36844;51.898;-0.874;2023-02-05T09:56:07;103469.34;;;17.63;
46015;BME280;36844;51.898;-0.874;2023-02-05T09:58:33;103475.53;;;17.64;
46015;BME280;36844;51.898;-0.874;2023-02-05T10:01:01;103470.47;;;17.62;
46015;BME280;36844;51.898;-0.874;2023-02-05T10:03:35;103476.97;;;17.61;
46015;BME280;36844;51.898;-0.874;2023-02-05T10:11:02;103447.16;;;17.58;
46015;BME280;36844;51.898;-0.874;2023-02-05T10:13:40;103464.16;;;17.58;
46015;BME280;36844;51.898;-0.874;2023-02-05T10:16:15;103442.88;;;17.57;
46015;BME280;36844;51.898;-0.874;2023-02-05T10:18:58;103441.28;;;17.56;
46015;BME280;36844;51.898;-0.874;2023-02-05T10:21:42;103435.44;;;17.54;
46015;BME280;36844;51.898;-0.874;2023-02-05T10:24:20;103448.13;;;17.53;
46015;BME280;36844;51.898;-0.874;2023-02-05T10:26:49;103436.53;;;17.53;
46015;BME280;36844;51.898;-0.874;2023-02-05T10:32:05;103421.81;;;17.50;
46015;BME280;36844;51.898;-0.874;2023-02-05T10:37:16;103425.88;;;17.48;
46015;BME280;36844;51.898;-0.874;2023-02-05T10:39:42;103428.59;;;17.48;
46015;BME280;36844;51.898;-0.874;2023-02-05T10:44:34;103452.22;;;17.42;
46015;BME280;36844;51.898;-0.874;2023-02-05T10:47:10;103450.63;;;17.41;
46015;BME280;36844;51.898;-0.874;2023-02-05T10:52:11;103453.97;;;17.38;
46015;BME280;36844;51.898;-0.874;2023-02-05T10:54:37;103456.66;;;17.38;
46015;BME280;36844;51.898;-0.874;2023-02-05T10:57:03;103467.44;;;17.38;
46015;BME280;36844;51.898;-0.874;2023-02-05T10:59:29;103464.75;;;17.38;
46015;BME280;36844;51.898;-0.874;2023-02-05T11:01:55;103469.34;;;17.38;
46015;BME280;36844;51.898;-0.874;2023-02-05T11:04:34;103466.66;;;17.38;
46015;BME280;36844;51.898;-0.874;2023-02-05T11:07:00;103458.84;;;17.36;
46015;BME280;36844;51.898;-0.874;2023-02-05T11:09:31;103453.47;;;17.36;
46015;BME280;36844;51.898;-0.874;2023-02-05T11:11:57;103453.47;;;17.36;
46015;BME280;36844;51.898;-0.874;2023-02-05T11:16:52;103470.78;;;17.35;
46015;BME280;36844;51.898;-0.874;2023-02-05T11:19:22;103472.69;;;17.35;
46015;BME280;36844;51.898;-0.874;2023-02-05T11:21:57;103483.44;;;17.35;
46015;BME280;36844;51.898;-0.874;2023-02-05T11:24:24;103485.34;;;17.34;
46015;BME280;36844;51.898;-0.874;2023-02-05T11:27:01;103476.47;;;17.34;
46015;BME280;36844;51.898;-0.874;2023-02-05T11:29:34;103481.06;;;17.33;
46015;BME280;36844;51.898;-0.874;2023-02-05T11:31:59;103477.56;;;17.33;
46015;BME280;36844;51.898;-0.874;2023-02-05T11:34:25;103474.09;;;17.32;
46015;BME280;36844;51.898;-0.874;2023-02-05T11:36:51;103477.91;;;17.31;
46015;BME280;36844;51.898;-0.874;2023-02-05T11:39:27;103487.56;;;17.32;
46015;BME280;36844;51.898;-0.874;2023-02-05T11:41:53;103485.19;;;17.31;
46015;BME280;36844;51.898;-0.874;2023-02-05T11:46:50;103476.31;;;17.30;
46015;BME280;36844;51.898;-0.874;2023-02-05T11:49:21;103478.53;;;17.28;
46015;BME280;36844;51.898;-0.874;2023-02-05T11:51:49;103466.16;;;17.27;
46015;BME280;36844;51.898;-0.874;2023-02-05T11:56:41;103454.72;;;17.22;
46015;BME280;36844;51.898;-0.874;2023-02-05T11:59:17;103455.06;;;17.20;
46015;BME280;36844;51.898;-0.874;2023-02-05T12:01:44;103446.47;;;17.18;
46015;BME280;36844;51.898;-0.874;2023-02-05T12:06:40;103440.13;;;17.14;
46015;BME280;36844;51.898;-0.874;2023-02-05T12:09:08;103440.78;;;17.11;
46015;BME280;36844;51.898;-0.874;2023-02-05T12:14:27;103453.28;;;17.07;
46015;BME280;36844;51.898;-0.874;2023-02-05T12:17:06;103440.44;;;17.04;
46015;BME280;36844;51.898;-0.874;2023-02-05T12:19:41;103435.69;;;17.01;
46015;BME280;36844;51.898;-0.874;2023-02-05T12:22:21;103437.88;;;16.99;
46015;BME280;36844;51.898;-0.874;2023-02-05T12:24:53;103447.41;;;16.97;
46015;BME280;36844;51.898;-0.874;2023-02-05T12:27:28;103458.19;;;16.97;
46015;BME280;36844;51.898;-0.874;2023-02-05T12:42:56;103451.88;;;17.01;
46015;BME280;36844;51.898;-0.874;2023-02-05T12:45:32;103453.91;;;17.04;
46015;BME280;36844;51.898;-0.874;2023-02-05T12:55:52;103432.72;;;17.20;
46015;BME280;36844;51.898;-0.874;2023-02-05T12:58:26;103441.75;;;17.24;
46015;BME280;36844;51.898;-0.874;2023-02-05T13:00:56;103434.28;;;17.29;
46015;BME280;36844;51.898;-0.874;2023-02-05T13:03:34;103427.16;;;17.33;
46015;BME280;36844;51.898;-0.874;2023-02-05T13:06:05;103430.50;;;17.39;
46015;BME280;36844;51.898;-0.874;2023-02-05T13:13:37;103401.19;;;17.54;
46015;BME280;36844;51.898;-0.874;2023-02-05T13:16:05;103418.31;;;17.58;
46015;BME280;36844;51.898;-0.874;2023-02-05T13:18:37;103439.69;;;17.63;
46015;BME280;36844;51.898;-0.874;2023-02-05T13:21:07;103433.34;;;17.68;
46015;BME280;36844;51.898;-0.874;2023-02-05T13:23:56;103434.31;;;17.72;
46015;BME280;36844;51.898;-0.874;2023-02-05T13:26:44;103439.84;;;17.75;
46015;BME280;36844;51.898;-0.874;2023-02-05T13:29:30;103423.53;;;17.81;
46015;BME280;36844;51.898;-0.874;2023-02-05T13:31:59;103428.25;;;17.84;
46015;BME280;36844;51.898;-0.874;2023-02-05T13:34:26;103419.53;;;17.87;
46015;BME280;36844;51.898;-0.874;2023-02-05T13:45:22;103398.72;;;17.96;
46015;BME280;36844;51.898;-0.874;2023-02-05T13:50:32;103386.16;;;18.00;
46015;BME280;36844;51.898;-0.874;2023-02-05T13:58:04;103374.72;;;18.03;
46015;BME280;36844;51.898;-0.874;2023-02-05T14:00:32;103376.31;;;18.04;
46015;BME280;36844;51.898;-0.874;2023-02-05T14:02:57;103383.31;;;18.05;
46015;BME280;36844;51.898;-0.874;2023-02-05T14:05:30;103388.38;;;18.06;
46015;BME280;36844;51.898;-0.874;2023-02-05T14:07:56;103381.06;;;18.07;
46015;BME280;36844;51.898;-0.874;2023-02-05T14:12:51;103344.88;;;18.08;
46015;BME280;36844;51.898;-0.874;2023-02-05T14:22:53;103344.41;;;18.06;
46015;BME280;36844;51.898;-0.874;2023-02-05T14:27:59;103356.34;;;18.05;
46015;BME280;36844;51.898;-0.874;2023-02-05T14:35:34;103360.13;;;18.04;
46015;BME280;36844;51.898;-0.874;2023-02-05T14:43:35;103357.63;;;17.99;
46015;BME280;36844;51.898;-0.874;2023-02-05T14:46:03;103357.63;;;17.99;
46015;BME280;36844;51.898;-0.874;2023-02-05T14:48:30;103362.53;;;17.97;
46015;BME280;36844;51.898;-0.874;2023-02-05T14:59:01;103367.66;;;17.90;
46015;BME280;36844;51.898;-0.874;2023-02-05T15:03:59;103366.72;;;17.86;
46015;BME280;36844;51.898;-0.874;2023-02-05T15:06:26;103358.16;;;17.84;
46015;BME280;36844;51.898;-0.874;2023-02-05T15:16:37;103355.78;;;17.73;
46015;BME280;36844;51.898;-0.874;2023-02-05T15:19:04;103369.59;;;17.72;
46015;BME280;36844;51.898;-0.874;2023-02-05T15:21:32;103371.47;;;17.71;
46015;BME280;36844;51.898;-0.874;2023-02-05T15:29:06;103360.41;;;17.64;
46015;BME280;36844;51.898;-0.874;2023-02-05T15:31:39;103341.06;;;17.62;
46015;BME280;36844;51.898;-0.874;2023-02-05T15:36:48;103359.78;;;17.59;
46015;BME280;36844;51.898;-0.874;2023-02-05T15:39:25;103354.72;;;17.57;
46015;BME280;36844;51.898;-0.874;2023-02-05T15:41:54;103348.81;;;17.55;
46015;BME280;36844;51.898;-0.874;2023-02-05T15:44:30;103356.13;;;17.55;
46015;BME280;36844;51.898;-0.874;2023-02-05T15:46:59;103355.38;;;17.54;
46015;BME280;36844;51.898;-0.874;2023-02-05T15:49:36;103352.16;;;17.52;
46015;BME280;36844;51.898;-0.874;2023-02-05T15:52:02;103347.88;;;17.51;
46015;BME280;36844;51.898;-0.874;2023-02-05T15:54:27;103345.53;;;17.50;
46015;BME280;36844;51.898;-0.874;2023-02-05T15:56:55;103356.31;;;17.50;
46015;BME280;36844;51.898;-0.874;2023-02-05T15:59:22;103340.13;;;17.50;
46015;BME280;36844;51.898;-0.874;2023-02-05T16:01:49;103333.94;;;17.49;
46015;BME280;36844;51.898;-0.874;2023-02-05T16:04:28;103338.25;;;17.50;
46015;BME280;36844;51.898;-0.874;2023-02-05T16:06:53;103343.63;;;17.50;
46015;BME280;36844;51.898;-0.874;2023-02-05T16:09:20;103337.09;;;17.51;